Terminal Aerodrome Forecast
Issued by NWS Twin Cities, MN

Home | Current Version | Previous Version | Graphics & Text | Print | Product List | Glossary On
Versions: 1 2 3 4 5 6 7 8 9 10 11 12 13 14 15 16 17 18 19 20
000
FTUS43 KMPX 241138
TAFSTC
TAF
KSTC 241138Z 2412/2512 16008KT P6SM OVC012
      TEMPO 2412/2416 OVC008
     FM241600 14014G22KT P6SM BKN009 OVC012
     FM242300 14013KT P6SM BKN020 OVC050
     FM250200 15009KT 2SM -RASN BR OVC010
     FM250500 16006KT 1 1/2SM -SN OVC007=

USA.gov is the U.S. government's official web portal to all federal, state and local government web resources and services.